Swiss BCS3 at Frankfurt on Apr 19th 2022, rejected takeoff due to control problems

Last Update: May 9, 2022 / 09:45:27 GMT/Zulu time

Bookmark this article
Incident Facts

Date of incident
Apr 19, 2022

Classification
Incident

Flight number
LX-1083

Aircraft Registration
HB-JCK

Aircraft Type
Airbus A220-300

ICAO Type Designator
BCS3

Airport ICAO Code
EDDF

A Swiss International Airlines Bombardier C-Series CS-300, registration HB-JCK performing flight LX-1083 from Frankfurt/Main (Germany) to Geneva (Switzerland) with 59 passengers and 5 crew, was accelerating for takeoff from Frankfurt's runway 18, when the crew rejected takeoff at high speed (more than 100 knots over ground). The aircraft slowed safely, vacated the runway about 1200 meters/4000 feet down the runway and returned to the apron.

Germany's BFU opened an investigation into the ocurrence rated a serious incident reporting the crew rejected takeoff due to control problems.

Metars:
EDDF 191350Z 36011KT CAVOK 18/M00 Q1011 NOSIG=
EDDF 191320Z 01011KT 340V050 CAVOK 18/M00 Q1012 NOSIG=
EDDF 191250Z 03011KT 360V070 CAVOK 18/01 Q1012 NOSIG=
EDDF 191220Z 01010KT 320V100 CAVOK 18/02 Q1012 NOSIG=
EDDF 191150Z 04011KT 360V070 CAVOK 18/02 Q1012 NOSIG=
EDDF 191120Z 06009KT 360V100 CAVOK 17/02 Q1012 NOSIG=
EDDF 191050Z VRB06KT CAVOK 17/01 Q1013 NOSIG=
EDDF 191020Z 05007KT 350V090 CAVOK 16/01 Q1013 NOSIG=
EDDF 190950Z 03007KT 340V100 CAVOK 16/00 Q1013 NOSIG=
EDDF 190920Z 05007KT 010V090 CAVOK 15/M00 Q1013 NOSIG=
EDDF 190850Z 06005KT 020V090 CAVOK 15/01 Q1013 NOSIG=
Aircraft Registration Data
Registration mark
HB-JCK
Country of Registration
Switzerland
Date of Registration
Ippgigbecnhbbl Subscribe to unlock
Certification Basis
Airworthyness Category
Hjc cAncdcAegdmh Subscribe to unlock
Legal Basis
TCDS Ident. No.
Af peppleqkcd Subscribe to unlock
Manufacturer
C SERIES AIRCRAFT LIMITED PARTNERSHIP
Aircraft Model / Type
BD-500-1A11
ICAO Aircraft Type
BCS3
Year of Manufacture
Serial Number
Aircraft Address / Mode S Code (HEX)
Max. Operational Passenger Seating Capacity (MOPSC), indicative
Minimum Crew
Maximum Take off Mass (MTOM) [kg]
Engine Count
Engine
NqAAcbgkhkcjAdAcgbiimpqqdnAb Subscribe to unlock
Main Owner
MhhnhbhpkmfidiAkgkhcphhiekbpq mmhbeheliAhqgdfnbkmddneiheqjp hgf Subscribe to unlock
Main Operator
Incident Facts

Date of incident
Apr 19, 2022

Classification
Incident

Flight number
LX-1083

Aircraft Registration
HB-JCK

Aircraft Type
Airbus A220-300

ICAO Type Designator
BCS3

Airport ICAO Code
EDDF

This article is published under license from Avherald.com. © of text by Avherald.com.
Article source

You can read 2 more free articles without a subscription.

Subscribe now and continue reading without any limits!

Are you a subscriber? Login
Subscribe

Read unlimited articles and receive our daily update briefing. Gain better insights into what is happening in commercial aviation safety.

Send tip

Support AeroInside by sending a small tip amount.

Related articles

Newest articles

Subscribe today

Are you researching aviation incidents? Get access to AeroInside Insights, unlimited read access and receive the daily newsletter.

Pick your plan and subscribe

Partner

Blockaviation logo

A new way to document and demonstrate airworthiness compliance and aircraft value. Find out more.

Virtual Speech logo

ELITE Simulation Solutions is a leading global provider of Flight Simulation Training Devices, IFR training software as well as flight controls and related services. Find out more.

AeroInside Blog
Popular aircraft
Airbus A320
Boeing 737-800
Boeing 737-800 MAX
Popular airlines
American Airlines
United
Delta
Air Canada
Lufthansa
British Airways